sensor_id;sensor_type;location;lat;lon;timestamp;temperature;humidity
15596;DHT22;7898;48.658;9.068;2024-02-21T00:01:30;5.00;99.90
15596;DHT22;7898;48.658;9.068;2024-02-21T00:03:57;5.00;99.90
15596;DHT22;7898;48.658;9.068;2024-02-21T00:06:25;5.00;99.90
15596;DHT22;7898;48.658;9.068;2024-02-21T00:08:52;4.90;99.90
15596;DHT22;7898;48.658;9.068;2024-02-21T00:11:19;4.90;99.90
15596;DHT22;7898;48.658;9.068;2024-02-21T00:13:46;4.80;99.90
15596;DHT22;7898;48.658;9.068;2024-02-21T00:16:13;4.80;99.90
15596;DHT22;7898;48.658;9.068;2024-02-21T00:18:41;4.80;99.90
15596;DHT22;7898;48.658;9.068;2024-02-21T00:21:08;4.80;99.90
15596;DHT22;7898;48.658;9.068;2024-02-21T00:23:36;4.70;99.90
15596;DHT22;7898;48.658;9.068;2024-02-21T00:26:03;4.90;99.90
15596;DHT22;7898;48.658;9.068;2024-02-21T00:28:31;4.80;99.90
15596;DHT22;7898;48.658;9.068;2024-02-21T00:30:58;4.80;99.90
15596;DHT22;7898;48.658;9.068;2024-02-21T00:33:25;4.80;99.90
15596;DHT22;7898;48.658;9.068;2024-02-21T00:35:51;4.80;99.90
15596;DHT22;7898;48.658;9.068;2024-02-21T00:38:18;4.80;99.90
15596;DHT22;7898;48.658;9.068;2024-02-21T00:40:46;4.60;99.90
15596;DHT22;7898;48.658;9.068;2024-02-21T00:43:13;4.40;99.90
15596;DHT22;7898;48.658;9.068;2024-02-21T00:45:41;4.40;99.90
15596;DHT22;7898;48.658;9.068;2024-02-21T00:48:07;4.30;99.90
15596;DHT22;7898;48.658;9.068;2024-02-21T00:50:34;4.20;99.90
15596;DHT22;7898;48.658;9.068;2024-02-21T00:53:03;4.20;99.90
15596;DHT22;7898;48.658;9.068;2024-02-21T00:55:30;4.20;99.90
15596;DHT22;7898;48.658;9.068;2024-02-21T00:57:58;4.20;99.90
15596;DHT22;7898;48.658;9.068;2024-02-21T01:00:25;4.30;99.90
15596;DHT22;7898;48.658;9.068;2024-02-21T01:02:51;4.30;99.90
15596;DHT22;7898;48.658;9.068;2024-02-21T01:05:19;4.40;99.90
15596;DHT22;7898;48.658;9.068;2024-02-21T01:07:45;4.40;99.90
15596;DHT22;7898;48.658;9.068;2024-02-21T01:10:12;4.50;99.90
15596;DHT22;7898;48.658;9.068;2024-02-21T01:12:39;4.50;99.90
15596;DHT22;7898;48.658;9.068;2024-02-21T01:15:08;4.50;99.90
15596;DHT22;7898;48.658;9.068;2024-02-21T01:17:35;4.60;99.90
15596;DHT22;7898;48.658;9.068;2024-02-21T01:20:03;4.60;99.90
15596;DHT22;7898;48.658;9.068;2024-02-21T01:22:30;4.70;99.90
15596;DHT22;7898;48.658;9.068;2024-02-21T01:24:57;4.80;99.90
15596;DHT22;7898;48.658;9.068;2024-02-21T01:27:24;5.00;99.90
15596;DHT22;7898;48.658;9.068;2024-02-21T01:29:51;5.10;99.90
15596;DHT22;7898;48.658;9.068;2024-02-21T01:32:19;5.20;99.90
15596;DHT22;7898;48.658;9.068;2024-02-21T01:34:47;5.10;99.90
15596;DHT22;7898;48.658;9.068;2024-02-21T01:37:14;5.10;99.90
15596;DHT22;7898;48.658;9.068;2024-02-21T01:39:41;5.10;99.90
15596;DHT22;7898;48.658;9.068;2024-02-21T01:42:08;5.20;99.90
15596;DHT22;7898;48.658;9.068;2024-02-21T01:44:35;5.20;99.90
15596;DHT22;7898;48.658;9.068;2024-02-21T01:47:02;5.20;99.90
15596;DHT22;7898;48.658;9.068;2024-02-21T01:49:30;5.20;99.90
15596;DHT22;7898;48.658;9.068;2024-02-21T01:51:57;5.30;99.90
15596;DHT22;7898;48.658;9.068;2024-02-21T01:54:25;5.30;99.90
15596;DHT22;7898;48.658;9.068;2024-02-21T01:56:54;5.20;99.90
15596;DHT22;7898;48.658;9.068;2024-02-21T01:59:21;5.40;99.90
15596;DHT22;7898;48.658;9.068;2024-02-21T02:01:50;5.30;99.90
15596;DHT22;7898;48.658;9.068;2024-02-21T02:04:17;5.30;99.90
15596;DHT22;7898;48.658;9.068;2024-02-21T02:06:45;5.30;99.90
15596;DHT22;7898;48.658;9.068;2024-02-21T02:09:12;5.30;99.90
15596;DHT22;7898;48.658;9.068;2024-02-21T02:11:39;5.30;99.90
15596;DHT22;7898;48.658;9.068;2024-02-21T02:14:06;5.30;99.90
15596;DHT22;7898;48.658;9.068;2024-02-21T02:16:33;5.30;99.90
15596;DHT22;7898;48.658;9.068;2024-02-21T02:19:00;5.30;99.90
15596;DHT22;7898;48.658;9.068;2024-02-21T02:21:30;5.30;99.90
15596;DHT22;7898;48.658;9.068;2024-02-21T02:24:00;5.30;99.90
15596;DHT22;7898;48.658;9.068;2024-02-21T02:26:27;5.30;99.90
15596;DHT22;7898;48.658;9.068;2024-02-21T02:28:54;5.30;99.90
15596;DHT22;7898;48.658;9.068;2024-02-21T02:31:21;5.30;99.90
15596;DHT22;7898;48.658;9.068;2024-02-21T02:33:48;5.30;99.90
15596;DHT22;7898;48.658;9.068;2024-02-21T02:36:14;5.40;99.90
15596;DHT22;7898;48.658;9.068;2024-02-21T02:38:41;5.40;99.90
15596;DHT22;7898;48.658;9.068;2024-02-21T02:41:09;5.40;99.90
15596;DHT22;7898;48.658;9.068;2024-02-21T02:43:36;5.40;99.90
15596;DHT22;7898;48.658;9.068;2024-02-21T02:46:03;5.40;99.90
15596;DHT22;7898;48.658;9.068;2024-02-21T02:48:30;5.40;99.90
15596;DHT22;7898;48.658;9.068;2024-02-21T02:50:57;5.40;99.90
15596;DHT22;7898;48.658;9.068;2024-02-21T02:53:24;5.40;99.90
15596;DHT22;7898;48.658;9.068;2024-02-21T02:55:50;5.40;99.90
15596;DHT22;7898;48.658;9.068;2024-02-21T02:58:19;5.50;99.90
15596;DHT22;7898;48.658;9.068;2024-02-21T03:00:46;5.50;99.90
15596;DHT22;7898;48.658;9.068;2024-02-21T03:03:12;5.60;99.90
15596;DHT22;7898;48.658;9.068;2024-02-21T03:05:39;5.60;99.90
15596;DHT22;7898;48.658;9.068;2024-02-21T03:08:06;5.60;99.90
15596;DHT22;7898;48.658;9.068;2024-02-21T03:10:33;5.60;99.90
15596;DHT22;7898;48.658;9.068;2024-02-21T03:13:00;5.50;99.90
15596;DHT22;7898;48.658;9.068;2024-02-21T03:15:28;5.50;99.90
15596;DHT22;7898;48.658;9.068;2024-02-21T03:17:55;5.50;99.90
15596;DHT22;7898;48.658;9.068;2024-02-21T03:20:22;6.10;99.90
15596;DHT22;7898;48.658;9.068;2024-02-21T03:22:49;5.50;99.90
15596;DHT22;7898;48.658;9.068;2024-02-21T03:25:16;5.50;99.90
15596;DHT22;7898;48.658;9.068;2024-02-21T03:27:43;5.50;99.90
15596;DHT22;7898;48.658;9.068;2024-02-21T03:30:10;5.50;99.90
15596;DHT22;7898;48.658;9.068;2024-02-21T03:32:39;5.50;99.90
15596;DHT22;7898;48.658;9.068;2024-02-21T03:35:06;5.50;99.90
15596;DHT22;7898;48.658;9.068;2024-02-21T03:37:33;5.50;99.90
15596;DHT22;7898;48.658;9.068;2024-02-21T03:40:00;5.50;99.90
15596;DHT22;7898;48.658;9.068;2024-02-21T03:42:27;5.50;99.90
15596;DHT22;7898;48.658;9.068;2024-02-21T03:44:55;5.50;99.90
15596;DHT22;7898;48.658;9.068;2024-02-21T03:47:22;5.40;99.90
15596;DHT22;7898;48.658;9.068;2024-02-21T03:49:50;5.40;99.90
15596;DHT22;7898;48.658;9.068;2024-02-21T03:52:17;5.40;99.90
15596;DHT22;7898;48.658;9.068;2024-02-21T03:54:44;5.40;99.90
15596;DHT22;7898;48.658;9.068;2024-02-21T03:57:11;5.40;99.90
15596;DHT22;7898;48.658;9.068;2024-02-21T03:59:38;5.30;99.90
15596;DHT22;7898;48.658;9.068;2024-02-21T04:02:05;5.30;99.90
15596;DHT22;7898;48.658;9.068;2024-02-21T04:04:34;5.90;99.90
15596;DHT22;7898;48.658;9.068;2024-02-21T04:07:04;5.30;99.90
15596;DHT22;7898;48.658;9.068;2024-02-21T04:09:32;5.30;99.90
15596;DHT22;7898;48.658;9.068;2024-02-21T04:11:59;5.30;99.90
15596;DHT22;7898;48.658;9.068;2024-02-21T04:14:26;5.30;99.90
15596;DHT22;7898;48.658;9.068;2024-02-21T04:16:53;5.30;99.90
15596;DHT22;7898;48.658;9.068;2024-02-21T04:19:20;5.30;99.90
15596;DHT22;7898;48.658;9.068;2024-02-21T04:21:47;5.20;99.90
15596;DHT22;7898;48.658;9.068;2024-02-21T04:24:15;5.20;99.90
15596;DHT22;7898;48.658;9.068;2024-02-21T04:26:42;5.10;99.90
15596;DHT22;7898;48.658;9.068;2024-02-21T04:29:09;5.10;99.90
15596;DHT22;7898;48.658;9.068;2024-02-21T04:31:36;5.10;99.90
15596;DHT22;7898;48.658;9.068;2024-02-21T04:34:03;5.10;99.90
15596;DHT22;7898;48.658;9.068;2024-02-21T04:36:29;5.30;99.90
15596;DHT22;7898;48.658;9.068;2024-02-21T04:38:56;5.10;99.90
15596;DHT22;7898;48.658;9.068;2024-02-21T04:41:25;5.00;99.90
15596;DHT22;7898;48.658;9.068;2024-02-21T04:43:51;5.10;99.90
15596;DHT22;7898;48.658;9.068;2024-02-21T04:46:18;5.00;99.90
15596;DHT22;7898;48.658;9.068;2024-02-21T04:48:45;5.00;99.90
15596;DHT22;7898;48.658;9.068;2024-02-21T04:51:12;5.10;99.90
15596;DHT22;7898;48.658;9.068;2024-02-21T04:53:39;5.90;99.90
15596;DHT22;7898;48.658;9.068;2024-02-21T04:56:06;5.00;99.90
15596;DHT22;7898;48.658;9.068;2024-02-21T04:58:37;5.30;99.90
15596;DHT22;7898;48.658;9.068;2024-02-21T05:01:04;5.00;99.90
15596;DHT22;7898;48.658;9.068;2024-02-21T05:03:31;5.00;99.90
15596;DHT22;7898;48.658;9.068;2024-02-21T05:05:59;5.00;99.90
15596;DHT22;7898;48.658;9.068;2024-02-21T05:08:26;5.00;99.90
15596;DHT22;7898;48.658;9.068;2024-02-21T05:10:53;5.00;99.90
15596;DHT22;7898;48.658;9.068;2024-02-21T05:13:20;5.00;99.90
15596;DHT22;7898;48.658;9.068;2024-02-21T05:15:48;5.00;99.90
15596;DHT22;7898;48.658;9.068;2024-02-21T05:18:16;5.00;99.90
15596;DHT22;7898;48.658;9.068;2024-02-21T05:20:42;5.00;99.90
15596;DHT22;7898;48.658;9.068;2024-02-21T05:23:09;4.90;99.90
15596;DHT22;7898;48.658;9.068;2024-02-21T05:25:36;4.90;99.90
15596;DHT22;7898;48.658;9.068;2024-02-21T05:28:03;5.20;99.90
15596;DHT22;7898;48.658;9.068;2024-02-21T05:30:31;4.80;99.90
15596;DHT22;7898;48.658;9.068;2024-02-21T05:33:04;4.70;99.90
15596;DHT22;7898;48.658;9.068;2024-02-21T05:35:34;4.70;99.90
15596;DHT22;7898;48.658;9.068;2024-02-21T05:38:01;4.60;99.90
15596;DHT22;7898;48.658;9.068;2024-02-21T05:40:31;4.50;99.90
15596;DHT22;7898;48.658;9.068;2024-02-21T05:42:57;4.40;99.90
15596;DHT22;7898;48.658;9.068;2024-02-21T05:45:24;4.40;99.90
15596;DHT22;7898;48.658;9.068;2024-02-21T05:47:51;4.30;99.90
15596;DHT22;7898;48.658;9.068;2024-02-21T05:50:19;4.30;99.90
15596;DHT22;7898;48.658;9.068;2024-02-21T05:52:47;4.20;99.90
15596;DHT22;7898;48.658;9.068;2024-02-21T05:55:14;4.20;99.90
15596;DHT22;7898;48.658;9.068;2024-02-21T05:57:41;4.20;99.90
15596;DHT22;7898;48.658;9.068;2024-02-21T06:00:09;4.20;99.90
15596;DHT22;7898;48.658;9.068;2024-02-21T06:02:36;4.20;99.90
15596;DHT22;7898;48.658;9.068;2024-02-21T06:05:03;4.20;99.90
15596;DHT22;7898;48.658;9.068;2024-02-21T06:07:34;4.20;99.90
15596;DHT22;7898;48.658;9.068;2024-02-21T06:10:01;4.20;99.90
15596;DHT22;7898;48.658;9.068;2024-02-21T06:12:28;4.20;99.90
15596;DHT22;7898;48.658;9.068;2024-02-21T06:14:55;4.20;99.90
15596;DHT22;7898;48.658;9.068;2024-02-21T06:17:22;4.10;99.90
15596;DHT22;7898;48.658;9.068;2024-02-21T06:19:49;4.10;99.90
15596;DHT22;7898;48.658;9.068;2024-02-21T06:22:16;4.10;99.90
15596;DHT22;7898;48.658;9.068;2024-02-21T06:24:44;4.10;99.90
15596;DHT22;7898;48.658;9.068;2024-02-21T06:27:11;4.20;99.90
15596;DHT22;7898;48.658;9.068;2024-02-21T06:29:40;4.10;99.90
15596;DHT22;7898;48.658;9.068;2024-02-21T06:32:07;4.10;99.90
15596;DHT22;7898;48.658;9.068;2024-02-21T06:34:34;4.50;99.90
15596;DHT22;7898;48.658;9.068;2024-02-21T06:37:01;4.80;99.90
15596;DHT22;7898;48.658;9.068;2024-02-21T06:39:28;5.10;99.90
15596;DHT22;7898;48.658;9.068;2024-02-21T06:41:56;5.70;99.90
15596;DHT22;7898;48.658;9.068;2024-02-21T06:44:23;6.30;99.90
15596;DHT22;7898;48.658;9.068;2024-02-21T06:46:49;7.00;99.90
15596;DHT22;7898;48.658;9.068;2024-02-21T06:49:16;8.30;99.90
15596;DHT22;7898;48.658;9.068;2024-02-21T06:51:43;7.70;99.90
15596;DHT22;7898;48.658;9.068;2024-02-21T06:54:10;8.00;99.90
15596;DHT22;7898;48.658;9.068;2024-02-21T06:56:39;8.60;99.90
15596;DHT22;7898;48.658;9.068;2024-02-21T06:59:07;9.10;99.90
15596;DHT22;7898;48.658;9.068;2024-02-21T07:01:34;9.50;99.90
15596;DHT22;7898;48.658;9.068;2024-02-21T07:04:00;9.40;99.90
15596;DHT22;7898;48.658;9.068;2024-02-21T07:06:27;9.20;99.90
15596;DHT22;7898;48.658;9.068;2024-02-21T07:08:54;9.20;99.90
15596;DHT22;7898;48.658;9.068;2024-02-21T07:11:21;9.10;99.90
15596;DHT22;7898;48.658;9.068;2024-02-21T07:13:50;8.90;99.90
15596;DHT22;7898;48.658;9.068;2024-02-21T07:16:19;9.00;99.90
15596;DHT22;7898;48.658;9.068;2024-02-21T07:18:45;9.20;99.90
15596;DHT22;7898;48.658;9.068;2024-02-21T07:21:12;9.20;99.90
15596;DHT22;7898;48.658;9.068;2024-02-21T07:23:41;9.40;99.90
15596;DHT22;7898;48.658;9.068;2024-02-21T07:26:08;9.50;99.90
15596;DHT22;7898;48.658;9.068;2024-02-21T07:28:35;9.70;99.90
15596;DHT22;7898;48.658;9.068;2024-02-21T07:31:02;10.20;99.90
15596;DHT22;7898;48.658;9.068;2024-02-21T07:33:30;10.70;99.90
15596;DHT22;7898;48.658;9.068;2024-02-21T07:35:58;10.90;99.90
15596;DHT22;7898;48.658;9.068;2024-02-21T07:38:24;11.20;99.90
15596;DHT22;7898;48.658;9.068;2024-02-21T07:40:51;11.60;99.90
15596;DHT22;7898;48.658;9.068;2024-02-21T07:43:18;11.80;99.90
15596;DHT22;7898;48.658;9.068;2024-02-21T07:45:47;12.20;99.90
15596;DHT22;7898;48.658;9.068;2024-02-21T07:48:14;12.10;99.90
15596;DHT22;7898;48.658;9.068;2024-02-21T07:50:43;11.60;99.90
15596;DHT22;7898;48.658;9.068;2024-02-21T07:53:10;11.20;99.90
15596;DHT22;7898;48.658;9.068;2024-02-21T07:55:36;11.00;99.90
15596;DHT22;7898;48.658;9.068;2024-02-21T07:58:03;10.70;99.90
15596;DHT22;7898;48.658;9.068;2024-02-21T08:00:30;10.50;99.90
15596;DHT22;7898;48.658;9.068;2024-02-21T08:02:57;10.30;99.90
15596;DHT22;7898;48.658;9.068;2024-02-21T08:05:24;10.30;99.90
15596;DHT22;7898;48.658;9.068;2024-02-21T08:07:52;10.10;99.90
15596;DHT22;7898;48.658;9.068;2024-02-21T08:10:19;10.00;99.90
15596;DHT22;7898;48.658;9.068;2024-02-21T08:12:47;9.90;99.90
15596;DHT22;7898;48.658;9.068;2024-02-21T08:15:14;10.00;99.90
15596;DHT22;7898;48.658;9.068;2024-02-21T08:17:41;10.00;99.90
15596;DHT22;7898;48.658;9.068;2024-02-21T08:20:09;10.00;99.90
15596;DHT22;7898;48.658;9.068;2024-02-21T08:22:37;9.80;99.90
15596;DHT22;7898;48.658;9.068;2024-02-21T08:25:06;9.80;99.90
15596;DHT22;7898;48.658;9.068;2024-02-21T08:27:33;9.80;99.90
15596;DHT22;7898;48.658;9.068;2024-02-21T08:30:00;9.90;99.90
15596;DHT22;7898;48.658;9.068;2024-02-21T08:32:29;9.90;99.90
15596;DHT22;7898;48.658;9.068;2024-02-21T08:34:55;10.00;99.90
15596;DHT22;7898;48.658;9.068;2024-02-21T08:37:22;10.00;99.90
15596;DHT22;7898;48.658;9.068;2024-02-21T08:39:49;10.00;99.90
15596;DHT22;7898;48.658;9.068;2024-02-21T08:42:17;10.10;99.90
15596;DHT22;7898;48.658;9.068;2024-02-21T08:44:44;10.10;99.90
15596;DHT22;7898;48.658;9.068;2024-02-21T08:47:11;10.10;99.90
15596;DHT22;7898;48.658;9.068;2024-02-21T08:49:38;10.00;99.90
15596;DHT22;7898;48.658;9.068;2024-02-21T08:52:05;9.80;99.90
15596;DHT22;7898;48.658;9.068;2024-02-21T08:54:32;9.80;99.90
15596;DHT22;7898;48.658;9.068;2024-02-21T08:56:59;9.70;99.90
15596;DHT22;7898;48.658;9.068;2024-02-21T08:59:27;9.60;99.90
15596;DHT22;7898;48.658;9.068;2024-02-21T09:01:54;9.50;99.90
15596;DHT22;7898;48.658;9.068;2024-02-21T09:04:21;9.50;99.90
15596;DHT22;7898;48.658;9.068;2024-02-21T09:06:48;9.40;99.90
15596;DHT22;7898;48.658;9.068;2024-02-21T09:09:14;9.40;99.90
15596;DHT22;7898;48.658;9.068;2024-02-21T09:11:41;9.50;99.90
15596;DHT22;7898;48.658;9.068;2024-02-21T09:14:08;9.60;99.90
15596;DHT22;7898;48.658;9.068;2024-02-21T09:16:36;9.80;99.90
15596;DHT22;7898;48.658;9.068;2024-02-21T09:19:03;9.80;99.90
15596;DHT22;7898;48.658;9.068;2024-02-21T09:21:30;10.00;99.90
15596;DHT22;7898;48.658;9.068;2024-02-21T09:23:57;9.90;99.90
15596;DHT22;7898;48.658;9.068;2024-02-21T09:26:24;10.00;99.90
15596;DHT22;7898;48.658;9.068;2024-02-21T09:28:51;10.00;99.90
15596;DHT22;7898;48.658;9.068;2024-02-21T09:31:18;10.10;99.90
15596;DHT22;7898;48.658;9.068;2024-02-21T09:33:46;10.20;99.90
15596;DHT22;7898;48.658;9.068;2024-02-21T09:36:14;10.30;99.90
15596;DHT22;7898;48.658;9.068;2024-02-21T09:38:41;10.40;99.90
15596;DHT22;7898;48.658;9.068;2024-02-21T09:41:16;10.70;99.90
15596;DHT22;7898;48.658;9.068;2024-02-21T09:43:44;10.90;99.90
15596;DHT22;7898;48.658;9.068;2024-02-21T09:46:16;11.10;99.90
15596;DHT22;7898;48.658;9.068;2024-02-21T09:48:58;11.60;99.90
15596;DHT22;7898;48.658;9.068;2024-02-21T09:51:27;12.00;99.90
15596;DHT22;7898;48.658;9.068;2024-02-21T09:53:56;12.20;99.90
15596;DHT22;7898;48.658;9.068;2024-02-21T09:56:24;12.30;99.90
15596;DHT22;7898;48.658;9.068;2024-02-21T09:58:51;12.40;99.90
15596;DHT22;7898;48.658;9.068;2024-02-21T10:01:17;12.50;99.90
15596;DHT22;7898;48.658;9.068;2024-02-21T10:03:44;12.60;99.90
15596;DHT22;7898;48.658;9.068;2024-02-21T10:06:13;12.70;99.90
15596;DHT22;7898;48.658;9.068;2024-02-21T10:08:39;12.70;99.90
15596;DHT22;7898;48.658;9.068;2024-02-21T10:11:06;13.00;99.90
15596;DHT22;7898;48.658;9.068;2024-02-21T10:13:35;13.20;99.90
15596;DHT22;7898;48.658;9.068;2024-02-21T10:16:05;13.40;99.90
15596;DHT22;7898;48.658;9.068;2024-02-21T10:18:32;13.40;99.90
15596;DHT22;7898;48.658;9.068;2024-02-21T10:21:03;13.40;99.90
15596;DHT22;7898;48.658;9.068;2024-02-21T10:23:42;13.10;99.90
15596;DHT22;7898;48.658;9.068;2024-02-21T10:26:10;12.70;99.90
15596;DHT22;7898;48.658;9.068;2024-02-21T10:28:37;12.60;99.90
15596;DHT22;7898;48.658;9.068;2024-02-21T10:31:08;12.40;99.90
15596;DHT22;7898;48.658;9.068;2024-02-21T10:33:37;12.40;99.90
15596;DHT22;7898;48.658;9.068;2024-02-21T10:36:08;12.60;99.90
15596;DHT22;7898;48.658;9.068;2024-02-21T10:38:36;12.80;99.90
15596;DHT22;7898;48.658;9.068;2024-02-21T10:41:06;12.70;99.90
15596;DHT22;7898;48.658;9.068;2024-02-21T10:43:38;12.80;99.90
15596;DHT22;7898;48.658;9.068;2024-02-21T10:46:07;12.50;99.90
15596;DHT22;7898;48.658;9.068;2024-02-21T10:48:42;12.30;99.90
15596;DHT22;7898;48.658;9.068;2024-02-21T10:51:15;12.20;99.90
15596;DHT22;7898;48.658;9.068;2024-02-21T10:53:45;12.30;99.90
15596;DHT22;7898;48.658;9.068;2024-02-21T10:56:28;12.30;99.90
15596;DHT22;7898;48.658;9.068;2024-02-21T10:58:57;12.30;99.90
15596;DHT22;7898;48.658;9.068;2024-02-21T11:01:25;12.20;99.90
15596;DHT22;7898;48.658;9.068;2024-02-21T11:03:55;12.30;99.90
15596;DHT22;7898;48.658;9.068;2024-02-21T11:06:25;12.30;99.90
15596;DHT22;7898;48.658;9.068;2024-02-21T11:09:03;12.30;99.90
15596;DHT22;7898;48.658;9.068;2024-02-21T11:11:33;12.40;99.90
15596;DHT22;7898;48.658;9.068;2024-02-21T11:14:07;12.40;99.90
15596;DHT22;7898;48.658;9.068;2024-02-21T11:16:37;12.50;99.90
15596;DHT22;7898;48.658;9.068;2024-02-21T11:19:08;12.50;99.90
15596;DHT22;7898;48.658;9.068;2024-02-21T11:21:37;12.60;99.90
15596;DHT22;7898;48.658;9.068;2024-02-21T11:24:05;12.70;99.90
15596;DHT22;7898;48.658;9.068;2024-02-21T11:26:33;12.60;99.90
15596;DHT22;7898;48.658;9.068;2024-02-21T11:29:00;12.50;99.90
15596;DHT22;7898;48.658;9.068;2024-02-21T11:31:38;12.40;99.90
15596;DHT22;7898;48.658;9.068;2024-02-21T11:34:09;12.30;99.90
15596;DHT22;7898;48.658;9.068;2024-02-21T11:36:36;12.10;99.90
15596;DHT22;7898;48.658;9.068;2024-02-21T11:39:04;12.20;99.90
15596;DHT22;7898;48.658;9.068;2024-02-21T11:41:32;12.20;99.90
15596;DHT22;7898;48.658;9.068;2024-02-21T11:43:59;12.20;99.90
15596;DHT22;7898;48.658;9.068;2024-02-21T11:46:26;12.20;99.90
15596;DHT22;7898;48.658;9.068;2024-02-21T11:48:53;12.20;99.90
15596;DHT22;7898;48.658;9.068;2024-02-21T11:51:25;12.10;99.90
15596;DHT22;7898;48.658;9.068;2024-02-21T11:53:52;12.10;99.90
15596;DHT22;7898;48.658;9.068;2024-02-21T11:56:19;12.10;99.90
15596;DHT22;7898;48.658;9.068;2024-02-21T11:58:47;12.10;99.90
15596;DHT22;7898;48.658;9.068;2024-02-21T12:01:14;12.20;99.90
15596;DHT22;7898;48.658;9.068;2024-02-21T12:03:42;12.30;99.90
15596;DHT22;7898;48.658;9.068;2024-02-21T12:06:17;12.20;99.90
15596;DHT22;7898;48.658;9.068;2024-02-21T12:08:47;12.30;99.90
15596;DHT22;7898;48.658;9.068;2024-02-21T12:11:20;12.30;99.90
15596;DHT22;7898;48.658;9.068;2024-02-21T12:13:58;12.30;99.90
15596;DHT22;7898;48.658;9.068;2024-02-21T12:16:27;12.40;99.90
15596;DHT22;7898;48.658;9.068;2024-02-21T12:18:54;12.50;99.90
15596;DHT22;7898;48.658;9.068;2024-02-21T12:21:24;12.60;99.90
15596;DHT22;7898;48.658;9.068;2024-02-21T12:23:51;12.60;99.90
15596;DHT22;7898;48.658;9.068;2024-02-21T12:26:18;12.60;99.90
15596;DHT22;7898;48.658;9.068;2024-02-21T12:28:45;12.70;99.90
15596;DHT22;7898;48.658;9.068;2024-02-21T12:31:13;12.80;99.90
15596;DHT22;7898;48.658;9.068;2024-02-21T12:33:41;12.80;99.90
15596;DHT22;7898;48.658;9.068;2024-02-21T12:36:08;12.90;99.90
15596;DHT22;7898;48.658;9.068;2024-02-21T12:38:35;12.90;99.90
15596;DHT22;7898;48.658;9.068;2024-02-21T12:41:03;13.00;99.90
15596;DHT22;7898;48.658;9.068;2024-02-21T12:43:30;13.10;99.90
15596;DHT22;7898;48.658;9.068;2024-02-21T12:45:57;13.10;99.90
15596;DHT22;7898;48.658;9.068;2024-02-21T12:48:25;13.10;99.90
15596;DHT22;7898;48.658;9.068;2024-02-21T12:50:52;13.10;99.90
15596;DHT22;7898;48.658;9.068;2024-02-21T12:53:19;13.10;99.90
15596;DHT22;7898;48.658;9.068;2024-02-21T12:55:48;13.30;99.90
15596;DHT22;7898;48.658;9.068;2024-02-21T12:58:16;13.30;99.90
15596;DHT22;7898;48.658;9.068;2024-02-21T13:00:43;13.30;99.90
15596;DHT22;7898;48.658;9.068;2024-02-21T13:03:10;13.20;99.90
15596;DHT22;7898;48.658;9.068;2024-02-21T13:05:38;13.00;99.90
15596;DHT22;7898;48.658;9.068;2024-02-21T13:08:05;12.90;99.90
15596;DHT22;7898;48.658;9.068;2024-02-21T13:10:32;12.90;99.90
15596;DHT22;7898;48.658;9.068;2024-02-21T13:13:00;12.90;99.90
15596;DHT22;7898;48.658;9.068;2024-02-21T13:15:27;13.00;99.90
15596;DHT22;7898;48.658;9.068;2024-02-21T13:17:55;13.00;99.90
15596;DHT22;7898;48.658;9.068;2024-02-21T13:20:22;13.00;99.90
15596;DHT22;7898;48.658;9.068;2024-02-21T13:22:50;13.00;99.90
15596;DHT22;7898;48.658;9.068;2024-02-21T13:25:17;13.10;99.90
15596;DHT22;7898;48.658;9.068;2024-02-21T13:27:46;13.10;99.90
15596;DHT22;7898;48.658;9.068;2024-02-21T13:30:14;13.10;99.90
15596;DHT22;7898;48.658;9.068;2024-02-21T13:32:43;13.20;99.90
15596;DHT22;7898;48.658;9.068;2024-02-21T13:35:12;13.10;99.90
15596;DHT22;7898;48.658;9.068;2024-02-21T13:37:40;13.10;99.90
15596;DHT22;7898;48.658;9.068;2024-02-21T13:40:09;13.00;99.90
15596;DHT22;7898;48.658;9.068;2024-02-21T13:42:36;13.00;99.90
15596;DHT22;7898;48.658;9.068;2024-02-21T13:45:04;13.00;99.90
15596;DHT22;7898;48.658;9.068;2024-02-21T13:47:32;13.00;99.90
15596;DHT22;7898;48.658;9.068;2024-02-21T13:49:59;13.00;99.90
15596;DHT22;7898;48.658;9.068;2024-02-21T13:52:26;13.00;99.90
15596;DHT22;7898;48.658;9.068;2024-02-21T13:54:53;12.90;99.90
15596;DHT22;7898;48.658;9.068;2024-02-21T13:57:21;12.90;99.90
15596;DHT22;7898;48.658;9.068;2024-02-21T13:59:48;12.90;99.90
15596;DHT22;7898;48.658;9.068;2024-02-21T14:02:15;12.90;99.90
15596;DHT22;7898;48.658;9.068;2024-02-21T14:04:42;12.90;99.90
15596;DHT22;7898;48.658;9.068;2024-02-21T14:07:09;12.90;99.90
15596;DHT22;7898;48.658;9.068;2024-02-21T14:09:36;12.90;99.90
15596;DHT22;7898;48.658;9.068;2024-02-21T14:12:03;12.90;99.90
15596;DHT22;7898;48.658;9.068;2024-02-21T14:14:35;12.80;99.90
15596;DHT22;7898;48.658;9.068;2024-02-21T14:17:02;12.90;99.90
15596;DHT22;7898;48.658;9.068;2024-02-21T14:19:29;12.90;99.90
15596;DHT22;7898;48.658;9.068;2024-02-21T14:21:56;12.80;99.90
15596;DHT22;7898;48.658;9.068;2024-02-21T14:24:23;12.80;99.90
15596;DHT22;7898;48.658;9.068;2024-02-21T14:26:50;12.70;99.90
15596;DHT22;7898;48.658;9.068;2024-02-21T14:29:17;12.80;99.90
15596;DHT22;7898;48.658;9.068;2024-02-21T14:31:45;12.80;99.90
15596;DHT22;7898;48.658;9.068;2024-02-21T14:34:12;12.80;99.90
15596;DHT22;7898;48.658;9.068;2024-02-21T14:36:39;12.80;99.90
15596;DHT22;7898;48.658;9.068;2024-02-21T14:39:07;12.90;99.90
15596;DHT22;7898;48.658;9.068;2024-02-21T14:41:34;12.80;99.90
15596;DHT22;7898;48.658;9.068;2024-02-21T14:44:02;12.70;99.90
15596;DHT22;7898;48.658;9.068;2024-02-21T14:46:29;12.70;99.90
15596;DHT22;7898;48.658;9.068;2024-02-21T14:48:57;12.70;99.90
15596;DHT22;7898;48.658;9.068;2024-02-21T14:51:24;12.70;99.90
15596;DHT22;7898;48.658;9.068;2024-02-21T14:53:56;12.70;99.90
15596;DHT22;7898;48.658;9.068;2024-02-21T14:56:23;12.60;99.90
15596;DHT22;7898;48.658;9.068;2024-02-21T14:58:51;12.50;99.90
15596;DHT22;7898;48.658;9.068;2024-02-21T15:01:17;12.50;99.90
15596;DHT22;7898;48.658;9.068;2024-02-21T15:03:44;12.40;99.90
15596;DHT22;7898;48.658;9.068;2024-02-21T15:06:12;12.40;99.90
15596;DHT22;7898;48.658;9.068;2024-02-21T15:08:39;12.30;99.90
15596;DHT22;7898;48.658;9.068;2024-02-21T15:11:07;12.30;99.90
15596;DHT22;7898;48.658;9.068;2024-02-21T15:13:34;12.20;99.90
15596;DHT22;7898;48.658;9.068;2024-02-21T15:16:02;12.20;99.90
15596;DHT22;7898;48.658;9.068;2024-02-21T15:18:30;12.10;99.90
15596;DHT22;7898;48.658;9.068;2024-02-21T15:20:58;12.10;99.90
15596;DHT22;7898;48.658;9.068;2024-02-21T15:23:27;12.10;99.90
15596;DHT22;7898;48.658;9.068;2024-02-21T15:25:53;12.10;99.90
15596;DHT22;7898;48.658;9.068;2024-02-21T15:28:20;12.20;99.90
15596;DHT22;7898;48.658;9.068;2024-02-21T15:30:47;12.20;99.90
15596;DHT22;7898;48.658;9.068;2024-02-21T15:33:14;12.30;99.90
15596;DHT22;7898;48.658;9.068;2024-02-21T15:35:41;12.50;99.90
15596;DHT22;7898;48.658;9.068;2024-02-21T15:38:08;12.50;99.90
15596;DHT22;7898;48.658;9.068;2024-02-21T15:40:36;12.50;99.90
15596;DHT22;7898;48.658;9.068;2024-02-21T15:43:03;12.40;99.90
15596;DHT22;7898;48.658;9.068;2024-02-21T15:45:30;12.30;99.90
15596;DHT22;7898;48.658;9.068;2024-02-21T15:47:57;12.20;99.90
15596;DHT22;7898;48.658;9.068;2024-02-21T15:50:24;12.20;99.90
15596;DHT22;7898;48.658;9.068;2024-02-21T15:52:53;12.10;99.90
15596;DHT22;7898;48.658;9.068;2024-02-21T15:55:20;12.10;99.90
15596;DHT22;7898;48.658;9.068;2024-02-21T15:57:48;12.00;99.90